createdAt,value
2023-02-16T00:00:24.981Z,31.63
2023-02-16T00:05:31.057Z,29.73
2023-02-16T00:10:35.957Z,31.07
2023-02-16T00:15:38.260Z,30.63
2023-02-16T00:20:42.046Z,30.83
2023-02-16T00:25:44.431Z,28.33
2023-02-16T00:30:47.128Z,30.00
2023-02-16T00:35:50.770Z,31.80
2023-02-16T00:40:52.821Z,31.37
2023-02-16T00:45:56.581Z,30.13
2023-02-16T00:51:00.228Z,32.30
2023-02-16T00:56:02.123Z,28.00
2023-02-16T01:01:09.539Z,30.87
2023-02-16T01:06:31.179Z,28.73
2023-02-16T01:11:33.553Z,36.17
2023-02-16T01:16:38.972Z,32.63
2023-02-16T01:21:42.791Z,31.27
2023-02-16T01:26:48.532Z,31.43
2023-02-16T01:31:51.121Z,26.07
2023-02-16T01:36:54.819Z,29.40
2023-02-16T01:42:20.680Z,29.80
2023-02-16T01:47:35.677Z,28.70
2023-02-16T01:52:43.554Z,29.57
2023-02-16T01:57:48.761Z,27.23
2023-02-16T02:02:54.121Z,26.10
2023-02-16T02:08:03.231Z,28.23
2023-02-16T02:13:08.773Z,30.17
2023-02-16T02:18:10.803Z,33.23
2023-02-16T02:23:40.717Z,31.30
2023-02-16T02:28:52.497Z,29.00
2023-02-16T02:34:05.661Z,27.77
2023-02-16T02:39:21.282Z,31.20
2023-02-16T02:44:27.186Z,30.67
2023-02-16T02:49:29.218Z,31.77
2023-02-16T02:54:52.712Z,29.83
2023-02-16T03:00:17.298Z,30.40
2023-02-16T03:05:21.900Z,31.17
2023-02-16T03:10:44.857Z,28.83
2023-02-16T03:15:50.564Z,39.03
2023-02-16T03:21:09.923Z,35.27
2023-02-16T03:26:29.538Z,30.93
2023-02-16T03:31:36.078Z,35.83
2023-02-16T03:36:41.956Z,36.63
2023-02-16T03:41:52.728Z,61.47
2023-02-16T03:46:56.184Z,34.63
2023-02-16T03:51:58.000Z,30.27
2023-02-16T03:57:00.205Z,40.53
2023-02-16T04:02:03.598Z,36.97
2023-02-16T04:07:05.582Z,46.27
2023-02-16T04:12:25.774Z,37.37
2023-02-16T04:17:29.096Z,47.90
2023-02-16T04:22:31.294Z,49.30
2023-02-16T04:27:34.170Z,43.87
2023-02-16T04:32:37.518Z,43.03
2023-02-16T04:37:39.807Z,42.00
2023-02-16T04:42:41.988Z,37.80
2023-02-16T04:47:45.901Z,50.70
2023-02-16T04:52:48.233Z,43.53
2023-02-16T04:57:50.672Z,55.27
2023-02-16T05:02:54.160Z,60.93
2023-02-16T05:07:56.281Z,40.17
2023-02-16T05:13:16.028Z,39.53
2023-02-16T05:18:19.885Z,43.37
2023-02-16T05:23:22.040Z,39.07
2023-02-16T05:28:24.454Z,36.57
2023-02-16T05:33:28.384Z,37.93
2023-02-16T05:38:30.658Z,36.80
2023-02-16T05:43:32.987Z,34.83
2023-02-16T05:48:37.985Z,34.13
2023-02-16T05:53:41.553Z,38.83
2023-02-16T05:58:45.083Z,31.37
2023-02-16T06:03:49.520Z,30.57
2023-02-16T06:08:51.933Z,35.10
2023-02-16T06:13:58.151Z,28.77
2023-02-16T06:19:02.344Z,29.83
2023-02-16T06:24:05.594Z,31.13
2023-02-16T06:29:07.841Z,32.60
2023-02-16T06:34:11.486Z,28.33
2023-02-16T06:39:13.843Z,32.57
2023-02-16T06:44:17.876Z,34.50
2023-02-16T06:49:22.817Z,30.43
2023-02-16T06:54:25.537Z,30.43
2023-02-16T06:59:27.855Z,33.67
2023-02-16T07:04:31.718Z,31.67
2023-02-16T07:09:33.953Z,32.30
2023-02-16T07:14:36.540Z,37.83
2023-02-16T07:19:40.308Z,39.27
2023-02-16T07:24:42.287Z,36.50
2023-02-16T07:29:46.955Z,38.97
2023-02-16T07:34:50.462Z,40.50
2023-02-16T07:39:53.270Z,40.07
2023-02-16T07:44:55.323Z,41.40
2023-02-16T07:49:58.904Z,36.93
2023-02-16T07:55:01.776Z,33.40
2023-02-16T08:00:05.483Z,32.80
2023-02-16T08:05:09.708Z,34.53
2023-02-16T08:10:13.218Z,31.30
2023-02-16T08:15:15.777Z,38.67
2023-02-16T08:20:20.278Z,44.20
2023-02-16T08:25:22.794Z,33.17
2023-02-16T08:30:25.366Z,39.27
2023-02-16T08:35:29.241Z,40.17
2023-02-16T08:40:31.747Z,35.57
2023-02-16T08:45:34.148Z,32.10
2023-02-16T08:50:38.198Z,27.63
2023-02-16T08:55:40.626Z,33.17
2023-02-16T09:00:43.937Z,30.33
2023-02-16T09:05:47.876Z,30.70
2023-02-16T09:10:49.841Z,26.73
2023-02-16T09:15:53.298Z,28.43
2023-02-16T09:20:56.925Z,25.47
2023-02-16T09:26:03.572Z,29.37
2023-02-16T09:31:11.737Z,23.07
2023-02-16T09:36:15.529Z,21.90
2023-02-16T09:41:27.746Z,23.63
2023-02-16T09:46:32.011Z,23.90
2023-02-16T09:51:39.263Z,26.00
2023-02-16T09:56:50.861Z,19.27
2023-02-16T10:02:00.020Z,19.10
2023-02-16T10:07:15.955Z,22.27
2023-02-16T10:12:22.211Z,15.73
2023-02-16T10:17:29.629Z,18.73
2023-02-16T10:22:37.908Z,14.15
2023-02-16T10:27:42.772Z,16.38
2023-02-16T10:32:56.218Z,12.98
2023-02-16T10:38:06.955Z,13.30
2023-02-16T10:43:18.360Z,15.77
2023-02-16T10:48:21.892Z,17.38
2023-02-16T10:53:36.688Z,18.30
2023-02-16T10:58:42.804Z,19.23
2023-02-16T11:03:48.994Z,15.38
2023-02-16T11:08:57.356Z,15.85
2023-02-16T11:14:01.896Z,13.23
2023-02-16T11:19:09.031Z,10.60
2023-02-16T11:24:14.700Z,10.90
2023-02-16T11:29:21.202Z,9.07
2023-02-16T11:34:31.689Z,10.95
2023-02-16T11:39:40.332Z,10.88
2023-02-16T11:44:44.806Z,13.90
2023-02-16T11:49:47.197Z,12.52
2023-02-16T11:54:56.059Z,11.10
2023-02-16T12:00:00.325Z,14.15
2023-02-16T12:05:22.140Z,16.65
2023-02-16T12:10:32.709Z,12.77
2023-02-16T12:15:46.783Z,13.45
2023-02-16T12:20:59.082Z,17.58
2023-02-16T12:26:29.444Z,14.50
2023-02-16T12:31:42.568Z,13.50
2023-02-16T12:37:05.450Z,14.57
2023-02-16T12:42:22.543Z,13.48
2023-02-16T12:47:33.770Z,15.85
2023-02-16T12:52:41.620Z,11.88
2023-02-16T12:57:52.165Z,14.48
2023-02-16T13:03:03.058Z,13.30
2023-02-16T13:08:14.277Z,11.35
2023-02-16T13:13:22.062Z,13.50
2023-02-16T13:18:28.627Z,12.68
2023-02-16T13:23:48.100Z,12.30
2023-02-16T13:29:23.230Z,14.90
2023-02-16T13:34:47.896Z,17.88
2023-02-16T13:40:13.778Z,14.68
2023-02-16T13:45:21.189Z,13.38
2023-02-16T13:50:31.138Z,13.15
2023-02-16T13:55:37.613Z,17.20
2023-02-16T14:00:44.045Z,16.40
2023-02-16T14:05:48.093Z,20.80
2023-02-16T14:11:11.536Z,15.45
2023-02-16T14:16:30.396Z,19.92
2023-02-16T14:21:38.203Z,17.00
2023-02-16T14:26:55.244Z,18.52
2023-02-16T14:32:03.950Z,22.10
2023-02-16T14:37:41.461Z,18.13
2023-02-16T14:42:53.684Z,16.52
2023-02-16T14:48:05.718Z,18.90
2023-02-16T14:54:00.297Z,19.20
2023-02-16T14:59:06.348Z,16.13
2023-02-16T15:04:11.525Z,16.45
2023-02-16T15:09:18.271Z,16.98
2023-02-16T15:14:21.373Z,23.77
2023-02-16T15:19:31.338Z,21.85
2023-02-16T15:24:34.542Z,22.63
2023-02-16T15:29:37.614Z,24.25
2023-02-16T15:34:42.332Z,23.00
2023-02-16T15:40:00.788Z,22.52
2023-02-16T15:45:27.973Z,20.58
2023-02-16T15:50:33.538Z,24.33
2023-02-16T15:55:36.614Z,26.60
2023-02-16T16:00:41.514Z,26.33
2023-02-16T16:05:58.519Z,32.43
2023-02-16T16:11:00.583Z,26.43
2023-02-16T16:16:04.985Z,24.47
2023-02-16T16:21:18.930Z,24.67
2023-02-16T16:26:24.107Z,22.50
2023-02-16T16:31:39.904Z,32.30
2023-02-16T16:36:54.998Z,44.97
2023-02-16T16:42:17.289Z,29.13
2023-02-16T16:47:28.398Z,31.03
2023-02-16T16:52:42.569Z,22.80
2023-02-16T16:57:46.920Z,26.40
2023-02-16T17:02:51.004Z,25.83
2023-02-16T17:07:56.770Z,20.17
2023-02-16T17:13:03.339Z,23.47
2023-02-16T17:18:07.847Z,29.33
2023-02-16T17:23:17.033Z,30.43
2023-02-16T17:28:21.631Z,33.70
2023-02-16T17:33:24.647Z,31.37
2023-02-16T17:38:30.033Z,31.90
2023-02-16T17:43:35.542Z,30.03
2023-02-16T17:48:39.493Z,30.27
2023-02-16T17:53:43.975Z,33.07
2023-02-16T17:58:48.239Z,30.27
2023-02-16T18:03:54.291Z,31.00
2023-02-16T18:08:59.697Z,28.80
2023-02-16T18:14:03.651Z,33.73
2023-02-16T18:19:09.732Z,29.87
2023-02-16T18:24:15.573Z,33.60
2023-02-16T18:29:20.880Z,31.97
2023-02-16T18:34:26.376Z,27.90
2023-02-16T18:39:31.949Z,25.73
2023-02-16T18:44:36.293Z,27.20
2023-02-16T18:49:39.980Z,30.20
2023-02-16T18:54:52.969Z,30.73
2023-02-16T18:59:56.893Z,28.07
2023-02-16T19:05:01.872Z,29.40
2023-02-16T19:10:09.169Z,33.50
2023-02-16T19:15:12.534Z,27.97
2023-02-16T19:20:19.366Z,33.13
2023-02-16T19:25:25.880Z,31.00
2023-02-16T19:30:30.284Z,26.07
2023-02-16T19:35:35.202Z,29.03
2023-02-16T19:40:41.954Z,21.47
2023-02-16T19:45:45.903Z,29.83
2023-02-16T19:50:49.898Z,27.73
2023-02-16T19:55:55.991Z,21.53
2023-02-16T20:01:01.025Z,23.07
2023-02-16T20:06:15.373Z,20.10
2023-02-16T20:11:28.596Z,20.17
2023-02-16T20:16:32.027Z,23.03
2023-02-16T20:21:37.172Z,23.80
2023-02-16T20:26:44.238Z,29.67
2023-02-16T20:31:51.953Z,24.80
2023-02-16T20:36:56.407Z,24.70
2023-02-16T20:42:02.771Z,25.30
2023-02-16T20:47:08.732Z,24.57
2023-02-16T20:52:13.433Z,25.10
2023-02-16T20:57:26.809Z,24.40
2023-02-16T21:03:18.779Z,25.93
2023-02-16T21:08:27.913Z,30.87
2023-02-16T21:13:39.152Z,23.50
2023-02-16T21:18:51.270Z,14.33
2023-02-16T21:24:04.001Z,13.90
2023-02-16T21:29:08.723Z,19.07
2023-02-16T21:34:12.361Z,15.70
2023-02-16T21:39:15.653Z,13.13
2023-02-16T21:44:20.114Z,20.53
2023-02-16T21:49:23.120Z,19.37
2023-02-16T21:54:45.650Z,19.73
2023-02-16T21:59:49.709Z,18.43
2023-02-16T22:04:52.499Z,24.13
2023-02-16T22:09:54.701Z,24.57
2023-02-16T22:14:58.431Z,18.93
2023-02-16T22:20:01.205Z,23.93
2023-02-16T22:25:04.634Z,18.17
2023-02-16T22:30:09.820Z,23.07
2023-02-16T22:35:12.005Z,22.87
2023-02-16T22:40:14.286Z,21.40
2023-02-16T22:45:18.394Z,26.53
2023-02-16T22:50:21.061Z,16.93
2023-02-16T22:55:23.268Z,15.70
2023-02-16T23:00:26.928Z,16.83
2023-02-16T23:05:31.523Z,13.77
2023-02-16T23:10:34.049Z,10.70
2023-02-16T23:15:38.063Z,6.37
2023-02-16T23:20:40.279Z,6.90
2023-02-16T23:25:46.195Z,8.03
2023-02-16T23:30:50.728Z,11.30
2023-02-16T23:35:53.095Z,8.50
2023-02-16T23:40:59.592Z,8.57
2023-02-16T23:46:03.954Z,9.63
2023-02-16T23:51:06.367Z,13.20
2023-02-16T23:56:10.194Z,15.13
